Latest Weather Observations for Tewantin

IDQ60801

Issued at 4:35 pm EST Wednesday 1 October 2014 (issued every 30 minutes, with the page automatically refreshed every 10 minutes)

About weather observations | Map of weather stations | Latest weather observations for QLD | Other Formats
Station Details ID: 040908 Name: TEWANTIN RSL PARK Lat: -26.39 Lon: 153.04 Height: 6.4 m
Data from the previous 72 hours. | See also: Recent months at Tewantin
Date/Time
EST
Temp
°C
App
Temp
°C
Dew
Point
Rel
Hum
%
Delta-T
°C
Wind Press
QNH
hPa
Press
MSL
hPa
Rain
since 9 am
mm
Dir
 
Spd
km/h
Gust
km/h
Spd
kts
Gust
kts
01/04:30pm 24.6 24.0 18.8 70 3.7 NNE 20 30 11 16 1012.4 1012.4 0.0
01/04:00pm 24.5 23.7 18.4 69 3.9 NNE 20 30 11 16 1012.3 1012.3 0.0
01/03:30pm 24.4 23.4 18.8 71 3.6 NNE 22 30 12 16 1012.4 1012.4 0.0
01/03:00pm 24.7 23.8 18.2 67 4.1 NNE 20 30 11 16 1012.6 1012.6 0.0
01/02:30pm 25.2 24.4 17.9 64 4.6 NNE 19 28 10 15 1013.0 1013.0 0.0
01/02:00pm 25.5 24.7 17.9 63 4.8 NNE 19 28 10 15 1013.4 1013.4 0.0
01/01:30pm 26.5 25.9 17.6 58 5.6 NE 17 24 9 13 1013.8 1013.8 0.0
01/01:00pm 28.4 27.3 15.3 45 8.0 N 15 20 8 11 1014.2 1014.2 0.0
01/12:30pm 27.3 25.2 14.7 46 7.6 N 19 24 10 13 1014.7 1014.7 0.0
01/12:00pm 27.7 27.6 15.0 45 7.7 NW 9 15 5 8 1015.6 1015.6 0.0
01/11:30am 26.5 25.3 13.9 45 7.5 NNW 13 20 7 11 1016.2 1016.2 0.0
01/11:00am 27.2 27.1 14.9 47 7.4 W 9 15 5 8 1017.1 1017.1 0.0
01/10:30am 25.8 24.3 13.0 45 7.5 W 13 24 7 13 1017.6 1017.6 0.0
01/10:00am 25.4 25.5 15.4 54 6.0 WNW 9 19 5 10 1017.7 1017.7 0.0
01/09:30am 24.1 22.8 13.6 52 6.1 NW 13 26 7 14 1017.8 1017.8 0.0
01/09:00am 22.9 21.6 13.7 56 5.3 NNW 13 22 7 12 1018.2 1018.2 0.0
01/08:30am 22.3 20.6 13.6 58 5.0 NW 15 26 8 14 1018.4 1018.4 0.0
01/08:00am 21.3 19.2 13.7 62 4.4 NNW 17 26 9 14 1018.4 1018.4 0.0
01/07:30am 20.3 20.0 14.4 69 3.4 NW 9 13 5 7 1018.4 1018.4 0.0
01/07:00am 18.3 18.5 14.8 80 2.0 NNW 7 11 4 6 1018.3 1018.3 0.0
01/06:30am 16.1 16.4 14.6 91 0.9 N 6 7 3 4 1018.0 1018.0 0.0
01/06:00am 15.1 15.3 14.1 94 0.6 N 6 9 3 5 1017.9 1017.9 0.0
01/05:30am 14.8 16.0 13.7 93 0.6 CALM 0 0 0 0 1017.8 1017.8 0.0
01/05:00am 15.4 16.1 14.6 95 0.5 N 4 6 2 3 1017.7 1017.7 0.0
01/04:30am 15.6 15.8 14.3 92 0.7 N 6 7 3 4 1017.7 1017.7 0.0
01/04:00am 16.1 16.2 14.5 90 0.9 N 7 9 4 5 1017.6 1017.6 0.0
01/03:30am 16.0 16.3 15.0 94 0.6 N 7 9 4 5 1017.6 1017.6 0.0
01/03:00am 16.0 16.6 15.4 96 0.3 N 6 7 3 4 1017.7 1017.7 0.0
01/02:30am 16.0 17.0 15.4 96 0.3 N 4 7 2 4 1017.8 1017.8 0.0
01/02:00am 16.1 16.6 15.1 94 0.6 N 6 7 3 4 1018.1 1018.1 0.0
01/01:30am 16.5 18.1 14.9 90 0.9 CALM 0 0 0 0 1018.4 1018.4 0.0
01/01:00am 16.9 17.3 15.2 90 1.0 N 7 9 4 5 1018.5 1018.5 0.0
01/12:30am 17.3 17.8 15.5 89 1.1 N 7 9 4 5 1018.8 1018.8 0.0
01/12:00am 17.3 17.7 14.8 85 1.4 NNW 6 9 3 5 1019.0 1019.0 0.0
 
Date/Time
EST
Temp
°C
App
Temp
°C
Dew
Point
Rel
Hum
%
Delta-T
°C
Wind Press
QNH
hPa
Press
MSL
hPa
Rain
since 9 am
mm
Dir
 
Spd
km/h
Gust
km/h
Spd
kts
Gust
kts
30/11:30pm 17.5 17.7 14.8 84 1.6 NNW 7 11 4 6 1019.1 1019.1 0.0
30/11:00pm 17.9 18.1 14.6 81 1.9 NNW 7 11 4 6 1019.2 1019.2 0.0
30/10:30pm 18.2 18.0 14.7 80 2.0 NNW 9 17 5 9 1019.2 1019.2 0.0
30/10:00pm 18.2 18.2 15.1 82 1.8 NNW 9 15 5 8 1019.3 1019.3 0.0
30/09:30pm 18.8 19.3 15.5 81 1.9 NW 7 13 4 7 1019.3 1019.3 0.0
30/09:00pm 19.2 20.0 16.4 84 1.7 N 7 9 4 5 1019.3 1019.3 0.0
30/08:30pm 19.5 20.1 15.8 79 2.2 NNW 7 11 4 6 1019.2 1019.2 0.0
30/08:00pm 20.0 20.1 15.4 75 2.7 N 9 13 5 7 1019.1 1019.1 0.0
30/07:30pm 20.4 19.4 15.6 74 2.8 N 15 20 8 11 1018.9 1018.9 0.0
30/07:00pm 20.7 19.8 15.9 74 2.9 N 15 22 8 12 1018.6 1018.6 0.0
30/06:30pm 21.0 20.3 16.4 75 2.8 N 15 20 8 11 1018.3 1018.3 0.0
30/06:00pm 21.1 19.5 16.1 73 3.0 NNE 19 26 10 14 1017.9 1017.9 0.0
30/05:30pm 21.5 19.7 16.0 71 3.3 NNE 20 28 11 15 1017.7 1017.7 0.0
30/05:00pm 21.9 19.9 16.4 71 3.3 NNE 22 33 12 18 1017.6 1017.6 0.0
30/04:30pm 22.1 19.9 15.9 68 3.7 NNE 22 37 12 20 1017.4 1017.4 0.0
30/04:00pm 22.2 19.2 15.8 67 3.8 NNE 26 39 14 21 1017.2 1017.2 0.0
30/03:30pm 22.4 19.4 16.7 70 3.5 NNE 28 41 15 22 1017.3 1017.3 0.0
30/03:00pm 22.8 19.9 17.0 70 3.6 NNE 28 39 15 21 1017.4 1017.4 0.0
30/02:30pm 22.8 20.0 16.4 67 3.9 NNE 26 35 14 19 1017.7 1017.7 0.0
30/02:00pm 23.0 20.5 16.1 65 4.2 NNE 24 32 13 17 1017.9 1017.9 0.0
30/01:30pm 23.2 21.8 17.0 68 3.8 NE 20 30 11 16 1018.3 1018.3 0.0
30/01:00pm 23.1 20.7 15.4 62 4.6 NNE 22 32 12 17 1018.6 1018.6 0.0
30/12:30pm 23.4 21.7 15.7 62 4.6 NNE 19 30 10 16 1019.0 1019.0 0.0
30/12:00pm 23.5 22.1 15.5 60 4.8 NE 17 26 9 14 1019.6 1019.6 0.0
30/11:30am 23.7 22.0 15.7 61 4.8 NE 19 24 10 13 1019.9 1019.9 0.0
30/11:00am 24.0 22.5 14.1 54 5.8 N 15 22 8 12 1020.3 1020.3 0.0
30/10:30am 23.5 22.5 14.5 57 5.3 N 13 20 7 11 1020.7 1020.7 0.0
30/10:00am 23.1 22.1 14.7 59 5.0 N 13 24 7 13 1021.1 1021.1 0.0
30/09:30am 22.1 20.7 13.5 58 5.0 N 13 20 7 11 1021.5 1021.5 0.0
30/09:00am 21.5 20.4 14.2 63 4.2 N 13 20 7 11 1021.6 1021.6 0.0
30/08:30am 20.9 20.4 13.8 64 4.1 NNW 9 17 5 9 1021.6 1021.6 0.0
30/08:00am 20.2 20.0 13.6 66 3.8 NW 7 13 4 7 1021.5 1021.5 0.0
30/07:30am 18.7 18.4 13.3 71 3.1 NNW 7 11 4 6 1021.5 1021.5 0.0
30/07:00am 16.9 16.6 13.4 80 2.0 NW 7 13 4 7 1021.2 1021.2 0.0
30/06:30am 14.6 14.7 12.6 88 1.1 WNW 4 7 2 4 1021.1 1021.1 0.0
30/06:00am 12.8 13.4 12.0 95 0.4 CALM 0 0 0 0 1020.8 1020.8 0.0
30/05:30am 12.2 12.7 11.6 96 0.3 CALM 0 0 0 0 1020.4 1020.4 0.0
30/05:00am 12.4 12.9 11.6 95 0.4 CALM 0 0 0 0 1020.1 1020.1 0.0
30/04:30am 12.4 12.9 11.5 94 0.5 CALM 0 0 0 0 1019.9 1019.9 0.0
30/04:00am 12.6 12.6 11.2 91 0.7 WNW 2 6 1 3 1019.6 1019.6 0.0
30/03:30am 13.4 12.9 12.0 91 0.8 WNW 6 7 3 4 1019.5 1019.5 0.0
30/03:00am 14.1 13.8 12.7 91 0.8 NW 6 7 3 4 1019.5 1019.5 0.0
30/02:30am 14.1 14.3 11.8 86 1.2 NNW 2 6 1 3 1019.6 1019.6 0.0
30/02:00am 14.7 14.2 12.0 84 1.5 NW 6 9 3 5 1019.6 1019.6 0.0
30/01:30am 15.2 14.7 12.5 84 1.5 NNW 7 11 4 6 1019.5 1019.5 0.0
30/01:00am 15.4 15.1 13.2 87 1.2 NNW 7 9 4 5 1019.7 1019.7 0.0
30/12:30am 15.3 15.1 13.5 89 1.0 N 7 11 4 6 1020.0 1020.0 0.0
30/12:00am 15.4 15.3 13.2 87 1.2 NNW 6 9 3 5 1019.9 1019.9 0.0
 
Date/Time
EST
Temp
°C
App
Temp
°C
Dew
Point
Rel
Hum
%
Delta-T
°C
Wind Press
QNH
hPa
Press
MSL
hPa
Rain
since 9 am
mm
Dir
 
Spd
km/h
Gust
km/h
Spd
kts
Gust
kts
29/11:30pm 15.6 16.0 12.4 81 1.8 W 2 6 1 3 1020.3 1020.3 0.0
29/11:00pm 16.0 16.1 12.6 80 1.9 WNW 4 7 2 4 1020.6 1020.6 0.0
29/10:30pm 15.9 16.7 12.6 81 1.8 CALM 0 6 0 3 1020.5 1020.5 0.0
29/10:00pm 16.7 17.1 12.5 76 2.3 WNW 2 6 1 3 1020.6 1020.6 0.0
29/09:30pm 16.9 17.3 12.6 76 2.4 W 2 7 1 4 1020.6 1020.6 0.0
29/09:00pm 16.8 17.2 12.5 76 2.4 WNW 2 7 1 4 1020.6 1020.6 0.0
29/08:30pm 17.2 17.7 12.9 76 2.4 NW 2 7 1 4 1020.3 1020.3 0.0
29/08:00pm 18.3 18.2 13.4 73 2.8 NW 6 7 3 4 1020.2 1020.2 0.0
29/07:30pm 18.8 18.6 13.6 72 3.0 N 7 9 4 5 1019.8 1019.8 0.0
29/07:00pm 19.2 18.6 13.4 69 3.3 N 9 11 5 6 1019.3 1019.3 0.0
29/06:30pm 19.5 19.0 13.7 69 3.3 N 9 15 5 8 1019.1 1019.1 0.0
29/06:00pm 20.0 19.6 14.1 69 3.4 NNE 9 13 5 7 1019.0 1019.0 0.0
29/05:30pm 20.6 19.0 14.0 66 3.8 NNE 15 19 8 10 1018.7 1018.7 0.0
29/05:00pm 20.9 18.9 12.8 60 4.6 NNE 15 20 8 11 1018.5 1018.5 0.0
29/04:30pm 21.2 18.7 13.4 61 4.5 NE 19 30 10 16 1018.1 1018.1 0.0
29/04:00pm 21.7 19.3 12.8 57 5.1 NNE 17 24 9 13 1018.0 1018.0 0.0
29/03:30pm 21.7 19.3 12.8 57 5.1 NNE 17 26 9 14 1017.9 1017.9 0.0
29/03:00pm 21.5 18.6 12.4 56 5.1 NNE 19 26 10 14 1018.0 1018.0 0.0
29/02:30pm 22.6 20.8 14.4 60 4.8 NE 17 24 9 13 1018.0 1018.0 0.0
29/02:00pm 22.3 20.4 13.1 56 5.3 NNE 15 20 8 11 1018.2 1018.2 0.0
29/01:30pm 22.4 20.5 12.9 55 5.4 NNE 15 24 8 13 1018.6 1018.6 0.0
29/01:00pm 22.8 21.4 14.4 59 4.9 NE 15 22 8 12 1019.0 1019.0 0.0
29/12:30pm 22.9 21.6 13.7 56 5.4 NE 13 20 7 11 1019.4 1019.4 0.0
29/12:00pm 22.2 21.0 12.7 55 5.4 NE 11 19 6 10 1019.9 1019.9 0.0
29/11:30am 22.8 22.3 13.8 57 5.2 NE 9 17 5 9 1020.2 1020.2 0.0
29/11:00am 22.9 22.4 13.7 56 5.3 NE 9 17 5 9 1020.6 1020.6 0.0
29/10:30am 21.9 20.7 12.7 56 5.2 N 11 15 6 8 1020.9 1020.9 0.0
29/10:00am 22.1 21.3 12.9 56 5.2 ENE 9 19 5 10 1021.3 1021.3 0.0
29/09:30am 22.2 21.1 13.0 56 5.3 E 11 19 6 10 1021.5 1021.5 0.0
29/09:00am 21.2 20.6 12.3 57 5.0 ESE 7 11 4 6 1021.7 1021.7 0.4
29/08:30am 21.4 21.2 11.7 54 5.4 NE 4 7 2 4 1021.8 1021.8 0.4
29/08:00am 20.6 21.4 14.9 70 3.3 SSW 4 7 2 4 1021.8 1021.8 0.4
29/07:30am 18.7 19.9 14.8 78 2.3 S 2 6 1 3 1021.7 1021.7 0.4
29/07:00am 16.8 18.2 14.3 85 1.4 CALM 0 0 0 0 1021.5 1021.5 0.4
29/06:30am 15.8 16.4 14.3 91 0.9 SSW 4 7 2 4 1021.1 1021.1 0.4
29/06:00am 15.2 16.4 13.9 92 0.7 CALM 0 0 0 0 1020.7 1020.7 0.4
29/05:30am 14.7 15.9 13.7 94 0.6 CALM 0 0 0 0 1020.3 1020.3 0.4
29/05:00am 14.6 15.7 13.5 93 0.6 CALM 0 0 0 0 1020.0 1020.0 0.4
29/04:30am 14.7 15.8 13.6 93 0.6 CALM 0 0 0 0 1019.7 1019.7 0.4
29/04:00am 14.8 15.5 13.5 92 0.7 WNW 2 6 1 3 1019.5 1019.5 0.4
29/03:30am 15.0 16.2 13.7 92 0.7 CALM 0 0 0 0 1019.5 1019.5 0.4
29/03:00am 15.2 16.3 13.6 90 0.9 CALM 0 0 0 0 1019.6 1019.6 0.4
29/02:30am 15.8 16.9 13.6 87 1.2 CALM 0 0 0 0 1019.8 1019.8 0.4
29/02:00am 15.9 17.0 13.4 85 1.4 CALM 0 0 0 0 1020.3 1020.3 0.4
29/01:30am 16.5 17.6 13.6 83 1.6 CALM 0 0 0 0 1020.5 1020.5 0.4
29/01:00am 16.9 17.7 13.6 81 1.9 SW 2 7 1 4 1020.7 1020.7 0.4
29/12:30am 16.7 18.0 14.0 84 1.5 CALM 0 0 0 0 1021.0 1021.0 0.4
29/12:00am 16.5 17.8 14.0 85 1.4 CALM 0 7 0 4 1021.2 1021.2 0.4
 
Date/Time
EST
Temp
°C
App
Temp
°C
Dew
Point
Rel
Hum
%
Delta-T
°C
Wind Press
QNH
hPa
Press
MSL
hPa
Rain
since 9 am
mm
Dir
 
Spd
km/h
Gust
km/h
Spd
kts
Gust
kts
28/11:30pm 16.5 17.6 13.6 83 1.6 CALM 0 0 0 0 1021.3 1021.3 0.4
28/11:00pm 16.5 17.6 13.4 82 1.7 CALM 0 0 0 0 1021.3 1021.3 0.4
28/10:30pm 16.7 17.8 13.6 82 1.7 CALM 0 0 0 0 1021.3 1021.3 0.4
28/10:00pm 17.1 18.4 14.0 82 1.8 CALM 0 6 0 3 1021.3 1021.3 0.4
28/09:30pm 17.3 17.2 13.4 78 2.2 SW 6 7 3 4 1021.4 1021.4 0.4
28/09:00pm 17.2 17.1 13.3 78 2.2 SSW 6 7 3 4 1021.4 1021.4 0.4
28/08:30pm 17.5 17.4 13.2 76 2.4 S 6 7 3 4 1021.2 1021.2 0.4
28/08:00pm 17.9 17.8 13.2 74 2.6 S 6 7 3 4 1020.8 1020.8 0.4
28/07:30pm 18.4 18.7 13.3 72 2.9 E 4 7 2 4 1020.5 1020.5 0.4
28/07:00pm 19.0 18.9 13.2 69 3.3 ESE 6 9 3 5 1020.2 1020.2 0.4
28/06:30pm 19.0 18.9 13.2 69 3.3 E 6 9 3 5 1019.9 1019.9 0.4
28/06:00pm 19.4 19.0 12.9 66 3.7 E 7 9 4 5 1019.9 1019.9 0.4
28/05:30pm 20.1 18.7 12.3 61 4.4 ESE 11 15 6 8 1019.7 1019.7 0.4
28/05:00pm 20.6 19.3 12.6 60 4.5 E 11 13 6 7 1019.6 1019.6 0.4

Other Formats:

Comma delimited format used in spreadsheet applications
http://www.bom.gov.au/fwo/IDQ60801/IDQ60801.94570.axf

JavaScript Object Notation format (JSON) in row-major order
http://www.bom.gov.au/fwo/IDQ60801/IDQ60801.94570.json